Darstellungsparameter: Aktuell verwendete Einstellungen:
Skalierung der Graphiken ... ?
xyx+y,   Skalierungsfaktor:      Skalierung: Modus: x, Faktor: 1
Darstellungszeitraum ... ?
Vom - - bis: - -   Zeitraum: 28.05.2010 - 29.05.2010
Min/Max/Avg-Anzeige ... ?
Zeige MMA aktuell
Zeige MMA Monat
Zeige MMA alles
Zeige --A aktuell
Zeige --A Monat
Zeige --A alles
Keine MMA-Anzeige
MMA:
Average (ber die Originaldaten)
MMA-Basis: 28.05.2010 - 29.05.2010
Quicknavigation für Darstellung... ?
Tage:      1T, 2T, 3T, 5T -1T -2T -3T -5T +1T +2T +3T +5T
Wochen: 1W, 2W, 3W -1W -2W -3W +1W +2W +3W
Monate: 1M, 3M, 6M -1M -3M -6M +1M +3M +6M
Jahre:    1J, 3J, 5J, 10J -1J -3J -5J -10J +1J +3J +5J +10J
Nutze für die Darstellung ... ?
Originaldaten oder Mittelwerte auf ...
Stundenbasis Tagesbasis Wochenbasis
Monatsbasis Jahresbasis      Datenbasis: Original-Daten
Darstellen als:
Statistik (Auto) Statistik J:M      Darstellung:
Zur Graphik,    zurück zur Übersicht aller Sensoren.
 
Tabellarische Datenbersicht: ?
 
Sensor: Nr:Datum:Temp:Abs-Feuchte:Windchill:Wind:
Aussen-T/F 1 28-05-2010 00:07:03 14.9 C 9.69 g/m*3 14.9 C 0 km/h
2 28-05-2010 00:19:03 14.9 C 9.81 g/m*3 14.9 C 0 km/h
3 28-05-2010 00:31:03 15 C 9.75 g/m*3 15 C 0 km/h
4 28-05-2010 00:43:03 15 C 9.49 g/m*3 15 C 0 km/h
5 28-05-2010 00:55:03 15.2 C 9.48 g/m*3 15.2 C 0 km/h
6 28-05-2010 01:07:03 15.2 C 9.35 g/m*3 15.2 C 0 km/h
7 28-05-2010 01:19:03 15.2 C 9.22 g/m*3 15.2 C 0 km/h
8 28-05-2010 01:31:03 15.2 C 9.09 g/m*3 15.2 C 0 km/h
9 28-05-2010 01:43:03 15.1 C 9.03 g/m*3 15.1 C 0 km/h
10 28-05-2010 01:55:03 15 C 9.1 g/m*3 15 C 0 km/h
11 28-05-2010 02:07:04 14.8 C 9.12 g/m*3 14.8 C 0 km/h
12 28-05-2010 02:19:04 14.9 C 9.3 g/m*3 14.9 C 0 km/h
13 28-05-2010 02:31:04 14.8 C 9.25 g/m*3 14.8 C 0 km/h
14 28-05-2010 02:43:04 14.9 C 9.3 g/m*3 14.9 C 0 km/h
15 28-05-2010 02:55:04 14.9 C 9.18 g/m*3 14.9 C 0 km/h
16 28-05-2010 03:07:04 14.9 C 9.18 g/m*3 14.9 C 0 km/h
17 28-05-2010 03:19:04 15 C 9.1 g/m*3 15 C 0 km/h
18 28-05-2010 03:31:04 14.7 C 9.19 g/m*3 14.7 C 0 km/h
19 28-05-2010 03:43:04 14.7 C 9.19 g/m*3 14.7 C 0 km/h
20 28-05-2010 03:55:04 14.6 C 9.13 g/m*3 14.6 C 0 km/h
21 28-05-2010 04:07:04 14.6 C 9.01 g/m*3 14.6 C 0 km/h
22 28-05-2010 04:19:04 14.6 C 9.01 g/m*3 14.6 C 0 km/h
23 28-05-2010 04:31:04 14.5 C 8.95 g/m*3 14.5 C 0 km/h
24 28-05-2010 04:43:04 14.1 C 9.34 g/m*3 14.1 C 0 km/h
25 28-05-2010 04:55:04 14 C 9.65 g/m*3 14 C 0 km/h
Sensor: Nr:Datum:Temp:Abs-Feuchte:Windchill:Wind:
Aussen-T/F 26 28-05-2010 05:07:04 13.8 C 9.77 g/m*3 13.8 C 0 km/h
27 28-05-2010 05:19:04 13.7 C 9.83 g/m*3 13.7 C 0 km/h
28 28-05-2010 05:31:04 13.7 C 9.83 g/m*3 13.7 C 0 km/h
29 28-05-2010 05:43:04 13.7 C 9.95 g/m*3 13.7 C 0 km/h
30 28-05-2010 05:55:04 13.6 C 10 g/m*3 13.6 C 0 km/h
31 28-05-2010 06:07:04 13.6 C 10 g/m*3 13.6 C 0 km/h
32 28-05-2010 06:19:04 13.5 C 9.94 g/m*3 13.5 C 0 km/h
33 28-05-2010 06:31:04 13.5 C 10.06 g/m*3 13.5 C 0 km/h
34 28-05-2010 06:43:05 13.7 C 10.18 g/m*3 13.7 C 0 km/h
35 28-05-2010 06:55:05 13.8 C 10.37 g/m*3 13.8 C 0 km/h
36 28-05-2010 07:07:03 13.8 C 10.37 g/m*3 13.8 C 0 km/h
37 28-05-2010 07:19:03 13.8 C 10.37 g/m*3 13.8 C 0 km/h
38 28-05-2010 07:31:02 14.1 C 10.56 g/m*3 14.1 C 0 km/h
39 28-05-2010 07:43:02 14.1 C 10.56 g/m*3 14.1 C 0 km/h
40 28-05-2010 07:55:01 14.1 C 10.56 g/m*3 14.1 C 0 km/h
41 28-05-2010 08:07:02 14.2 C 10.5 g/m*3 14.2 C 0 km/h
42 28-05-2010 08:19:02 14.1 C 10.44 g/m*3 14.1 C 0 km/h
43 28-05-2010 08:31:01 14.2 C 10.5 g/m*3 14.2 C 0 km/h
44 28-05-2010 08:43:01 14.5 C 10.7 g/m*3 14.5 C 0 km/h
45 28-05-2010 08:55:01 14.8 C 10.77 g/m*3 14.8 C 0 km/h
46 28-05-2010 09:07:01 15.2 C 10.64 g/m*3 15.2 C 0 km/h
47 28-05-2010 09:19:02 15.2 C 10.25 g/m*3 15.2 C 0 km/h
48 28-05-2010 09:31:01 15.2 C 9.48 g/m*3 15.2 C 0 km/h
49 28-05-2010 09:43:01 15.8 C 9.29 g/m*3 15.8 C 0 km/h
50 28-05-2010 09:55:03 14.2 C 8.91 g/m*3 14.2 C 0 km/h
Sensor: Nr:Datum:Temp:Abs-Feuchte:Windchill:Wind:
Aussen-T/F 51 28-05-2010 10:07:02 15.5 C 9.25 g/m*3 15.5 C 0 km/h
52 28-05-2010 10:19:02 15.5 C 8.59 g/m*3 15.5 C 0 km/h
53 28-05-2010 10:31:02 15.6 C 8.25 g/m*3 15.6 C 0 km/h
54 28-05-2010 10:43:02 15.6 C 8.51 g/m*3 15.6 C 0 km/h
55 28-05-2010 10:55:02 16 C 8.17 g/m*3 16 C 0 km/h
56 28-05-2010 11:07:02 16.3 C 7.63 g/m*3 16.3 C 0 km/h
57 28-05-2010 11:19:02 17.6 C 7.65 g/m*3 17.6 C 0 km/h
58 28-05-2010 11:31:02 16.9 C 7.05 g/m*3 16.9 C 0 km/h
59 28-05-2010 11:43:02 18 C 7.22 g/m*3 18 C 0 km/h
60 28-05-2010 11:55:02 17.2 C 6.74 g/m*3 17.2 C 0 km/h
61 28-05-2010 12:07:01 17.8 C 6.83 g/m*3 17.8 C 0 km/h
62 28-05-2010 12:19:01 16.9 C 7.34 g/m*3 16.9 C 0 km/h
63 28-05-2010 12:31:02 17.5 C 7.01 g/m*3 17.5 C 0 km/h
64 28-05-2010 12:43:02 19.3 C 7.13 g/m*3 19.3 C 0 km/h
65 28-05-2010 12:55:02 20.5 C 7.3 g/m*3 20.5 C 0 km/h
66 28-05-2010 13:07:02 20.4 C 6.72 g/m*3 20.4 C 0 km/h
67 28-05-2010 13:19:02 21.9 C 6.95 g/m*3 21.9 C 0 km/h
68 28-05-2010 13:31:02 21 C 6.41 g/m*3 21 C 0 km/h
69 28-05-2010 13:43:02 19.3 C 6.63 g/m*3 19.3 C 0 km/h
70 28-05-2010 13:55:02 18.6 C 6.37 g/m*3 18.6 C 0 km/h
71 28-05-2010 14:07:03 20 C 6.39 g/m*3 20 C 0 km/h
72 28-05-2010 14:19:02 21.2 C 6.49 g/m*3 21.2 C 0 km/h
73 28-05-2010 14:31:02 19.1 C 6.07 g/m*3 19.1 C 0 km/h
74 28-05-2010 14:43:02 18.2 C 6.22 g/m*3 18.2 C 0 km/h
75 28-05-2010 14:55:01 18.5 C 5.85 g/m*3 18.5 C 0 km/h
Sensor: Nr:Datum:Temp:Abs-Feuchte:Windchill:Wind:
Aussen-T/F 76 28-05-2010 15:07:02 19.1 C 5.9 g/m*3 19.1 C 0 km/h
77 28-05-2010 15:19:01 21.6 C 5.88 g/m*3 21.6 C 0 km/h
78 28-05-2010 15:31:01 22.6 C 5.42 g/m*3 22.6 C 0 km/h
79 28-05-2010 15:43:01 22.1 C 4.88 g/m*3 22.1 C 0 km/h
80 28-05-2010 15:55:01 23.2 C 4.99 g/m*3 23.2 C 0 km/h
81 28-05-2010 16:07:02 22.6 C 4.62 g/m*3 22.6 C 0 km/h
82 28-05-2010 16:19:02 23.4 C 4.63 g/m*3 23.4 C 0 km/h
83 28-05-2010 16:31:01 23.5 C 4.44 g/m*3 23.5 C 0 km/h
84 28-05-2010 16:43:01 22.6 C 4.02 g/m*3 22.6 C 0 km/h
85 28-05-2010 16:55:01 23.2 C 4.16 g/m*3 23.2 C 0 km/h
86 28-05-2010 17:07:01 22.2 C 3.93 g/m*3 22.2 C 0 km/h
87 28-05-2010 17:19:02 23 C 4.11 g/m*3 23 C 0 km/h
88 28-05-2010 17:31:01 24.2 C 4.4 g/m*3 24.2 C 0 km/h
89 28-05-2010 17:43:01 23.3 C 4.18 g/m*3 23.3 C 0 km/h
90 28-05-2010 17:55:03 23.3 C 4.18 g/m*3 23.3 C 0 km/h
91 28-05-2010 18:07:02 22.7 C 4.04 g/m*3 22.7 C 0 km/h
92 28-05-2010 18:19:02 22.8 C 4.06 g/m*3 22.8 C 0 km/h
93 28-05-2010 18:31:02 23.1 C 4.13 g/m*3 23.1 C 0 km/h
94 28-05-2010 18:43:02 22.5 C 3.99 g/m*3 22.5 C 0 km/h
95 28-05-2010 18:55:02 22 C 4.27 g/m*3 22 C 0 km/h
96 28-05-2010 19:07:01 21.7 C 4.77 g/m*3 21.7 C 0 km/h
97 28-05-2010 19:19:02 22 C 4.27 g/m*3 22 C 0 km/h
98 28-05-2010 19:31:02 22.5 C 4.79 g/m*3 22.5 C 0 km/h
99 28-05-2010 19:43:02 22.1 C 4.88 g/m*3 22.1 C 0 km/h
100 28-05-2010 19:55:01 22.4 C 4.57 g/m*3 22.4 C 0 km/h
Sensor: Nr:Datum:Temp:Abs-Feuchte:Windchill:Wind:
Aussen-T/F 101 28-05-2010 20:07:01 21.2 C 4.63 g/m*3 21.2 C 0 km/h
102 28-05-2010 20:19:01 19.7 C 4.92 g/m*3 19.7 C 0 km/h
103 28-05-2010 20:31:01 19.2 C 5.11 g/m*3 19.2 C 0 km/h
104 28-05-2010 20:43:01 19.3 C 5.14 g/m*3 19.3 C 0 km/h
105 28-05-2010 20:55:02 19 C 5.05 g/m*3 19 C 0 km/h
106 28-05-2010 21:07:02 18.6 C 5.09 g/m*3 18.6 C 0 km/h
107 28-05-2010 21:19:02 18.1 C 5.25 g/m*3 18.1 C 0 km/h
108 28-05-2010 21:31:02 17.4 C 5.34 g/m*3 17.4 C 0 km/h
109 28-05-2010 21:43:02 17 C 5.35 g/m*3 17 C 0 km/h
110 28-05-2010 21:55:02 16.6 C 5.65 g/m*3 16.6 C 0 km/h
111 28-05-2010 22:07:02 16.1 C 5.76 g/m*3 16.1 C 0 km/h
112 28-05-2010 22:19:01 15.7 C 6.02 g/m*3 15.7 C 0 km/h
113 28-05-2010 22:32:03 15.6 C 5.85 g/m*3 15.6 C 0 km/h
114 28-05-2010 22:44:03 15.4 C 6.04 g/m*3 15.4 C 0 km/h
115 28-05-2010 22:56:03 15 C 6.03 g/m*3 15 C 0 km/h
116 28-05-2010 23:08:03 14.7 C 6.04 g/m*3 14.7 C 0 km/h
117 28-05-2010 23:20:03 14.5 C 5.97 g/m*3 14.5 C 0 km/h
118 28-05-2010 23:32:03 14.2 C 6.11 g/m*3 14.2 C 0 km/h
119 28-05-2010 23:44:03 13.6 C 6.47 g/m*3 13.6 C 0 km/h
120 28-05-2010 23:56:03 13.3 C 6.47 g/m*3 13.3 C 0 km/h
121 29-05-2010 00:08:03 13.1 C 6.5 g/m*3 13.1 C 0 km/h
122 29-05-2010 00:20:03 13.1 C 6.62 g/m*3 13.1 C 0 km/h
123 29-05-2010 00:32:03 12.9 C 6.65 g/m*3 12.9 C 0 km/h
124 29-05-2010 00:44:03 12.7 C 6.68 g/m*3 12.7 C 0 km/h
125 29-05-2010 00:56:03 12.5 C 6.71 g/m*3 12.5 C 0 km/h
Sensor: Nr:Datum:Temp:Abs-Feuchte:Windchill:Wind:
Aussen-T/F 126 29-05-2010 01:08:03 12.3 C 6.62 g/m*3 12.3 C 0 km/h
127 29-05-2010 01:20:03 12.1 C 6.65 g/m*3 12.1 C 0 km/h
128 29-05-2010 01:32:04 11.9 C 6.78 g/m*3 11.9 C 0 km/h
129 29-05-2010 01:44:04 11.7 C 6.9 g/m*3 11.7 C 0 km/h
130 29-05-2010 01:56:04 11.6 C 6.86 g/m*3 11.6 C 0 km/h
131 29-05-2010 02:08:04 11.3 C 6.94 g/m*3 11.3 C 0 km/h
132 29-05-2010 02:20:04 11 C 6.91 g/m*3 11 C 0 km/h
133 29-05-2010 02:32:04 10.7 C 6.97 g/m*3 10.7 C 0 km/h
134 29-05-2010 02:44:04 10.6 C 6.93 g/m*3 10.6 C 0 km/h
135 29-05-2010 02:56:04 10.5 C 6.98 g/m*3 10.5 C 0 km/h
136 29-05-2010 03:08:04 10.2 C 6.95 g/m*3 10.2 C 0 km/h
137 29-05-2010 03:20:04 10.1 C 7 g/m*3 10.1 C 0 km/h
138 29-05-2010 03:32:04 9.9 C 7 g/m*3 9.9 C 0 km/h
139 29-05-2010 03:44:04 9.9 C 7.1 g/m*3 9.9 C 0 km/h
140 29-05-2010 03:56:04 9.8 C 7.05 g/m*3 9.8 C 0 km/h
141 29-05-2010 04:08:04 9.8 C 7.05 g/m*3 9.8 C 0 km/h
142 29-05-2010 04:20:04 9.7 C 7.1 g/m*3 9.7 C 0 km/h
143 29-05-2010 04:32:04 9.7 C 7.1 g/m*3 9.7 C 0 km/h
144 29-05-2010 04:44:04 9.6 C 7.05 g/m*3 9.6 C 0 km/h
145 29-05-2010 04:56:04 9.7 C 7.1 g/m*3 9.7 C 0 km/h
146 29-05-2010 05:08:04 9.6 C 6.96 g/m*3 9.6 C 0 km/h
147 29-05-2010 05:20:04 9.5 C 7.01 g/m*3 9.5 C 0 km/h
148 29-05-2010 05:32:05 9.5 C 7.01 g/m*3 9.5 C 0 km/h
149 29-05-2010 05:44:05 9.5 C 7.01 g/m*3 9.5 C 0 km/h
150 29-05-2010 05:56:05 9.3 C 7.01 g/m*3 9.3 C 0 km/h
Sensor: Nr:Datum:Temp:Abs-Feuchte:Windchill:Wind:
Aussen-T/F 151 29-05-2010 06:08:05 9.4 C 7.05 g/m*3 9.4 C 0 km/h
152 29-05-2010 06:20:05 9.6 C 7.15 g/m*3 9.6 C 0 km/h
153 29-05-2010 06:32:05 9.9 C 7.28 g/m*3 9.9 C 0 km/h
154 29-05-2010 06:44:05 10 C 7.14 g/m*3 10 C 0 km/h
155 29-05-2010 06:56:05 10 C 7.05 g/m*3 10 C 0 km/h
156 29-05-2010 07:08:05 9.9 C 7.1 g/m*3 9.9 C 0 km/h
157 29-05-2010 07:20:05 10.1 C 7.09 g/m*3 10.1 C 0 km/h
158 29-05-2010 07:32:05 10.2 C 7.14 g/m*3 10.2 C 0 km/h
159 29-05-2010 07:44:05 10.3 C 7.18 g/m*3 10.3 C 0 km/h
160 29-05-2010 07:56:05 10.4 C 7.23 g/m*3 10.4 C 0 km/h
161 29-05-2010 08:08:05 10.7 C 7.37 g/m*3 10.7 C 0 km/h
162 29-05-2010 08:20:05 11 C 7.31 g/m*3 11 C 0 km/h
163 29-05-2010 08:32:02 11.3 C 7.24 g/m*3 11.3 C 0 km/h
164 29-05-2010 08:44:02 11.7 C 7.11 g/m*3 11.7 C 0 km/h
165 29-05-2010 08:56:02 11.5 C 6.92 g/m*3 11.5 C 0 km/h
166 29-05-2010 09:08:02 11.8 C 7.16 g/m*3 11.8 C 0 km/h
167 29-05-2010 09:20:01 12.2 C 7.01 g/m*3 12.2 C 0 km/h
168 29-05-2010 09:32:02 12.7 C 7.01 g/m*3 12.7 C 0 km/h
169 29-05-2010 09:44:02 13.4 C 7.09 g/m*3 13.4 C 0 km/h
170 29-05-2010 09:56:02 14.2 C 6.96 g/m*3 14.2 C 0 km/h
171 29-05-2010 10:08:02 15 C 6.92 g/m*3 15 C 0 km/h
172 29-05-2010 10:20:02 16.1 C 7.26 g/m*3 16.1 C 0 km/h
173 29-05-2010 10:32:02 17.4 C 7.41 g/m*3 17.4 C 0 km/h
174 29-05-2010 10:44:02 17.9 C 7.02 g/m*3 17.9 C 0 km/h
175 29-05-2010 10:56:02 18.1 C 6.8 g/m*3 18.1 C 0 km/h
Sensor: Nr:Datum:Temp:Abs-Feuchte:Windchill:Wind:
Aussen-T/F 176 29-05-2010 11:08:02 18.4 C 6.92 g/m*3 18.4 C 0 km/h
177 29-05-2010 11:20:02 18.1 C 7.42 g/m*3 18.1 C 0 km/h
178 29-05-2010 11:32:02 18.4 C 7.55 g/m*3 18.4 C 0 km/h
179 29-05-2010 11:44:02 18.8 C 7.41 g/m*3 18.8 C 0 km/h
180 29-05-2010 11:56:01 19.6 C 7.26 g/m*3 19.6 C 0 km/h
181 29-05-2010 12:08:01 20.9 C 6.01 g/m*3 20.9 C 0 km/h
182 29-05-2010 12:20:01 21.8 C 5.76 g/m*3 21.8 C 0 km/h
183 29-05-2010 12:32:01 21.6 C 5.12 g/m*3 21.6 C 0 km/h
184 29-05-2010 12:44:01 21.2 C 5.19 g/m*3 21.2 C 0 km/h
185 29-05-2010 12:56:01 23.1 C 5.17 g/m*3 23.1 C 0 km/h
186 29-05-2010 13:08:01 24 C 4.79 g/m*3 24 C 0 km/h
187 29-05-2010 13:20:02 25.1 C 5.32 g/m*3 25.1 C 0 km/h
188 29-05-2010 13:32:01 25 C 4.6 g/m*3 25 C 0 km/h
189 29-05-2010 13:44:01 25.5 C 4.73 g/m*3 25.5 C 0 km/h
190 29-05-2010 13:56:02 24.6 C 4.73 g/m*3 24.6 C 0 km/h
191 29-05-2010 14:08:01 23.7 C 5.13 g/m*3 23.7 C 0 km/h
192 29-05-2010 14:20:02 23.8 C 5.38 g/m*3 23.8 C 0 km/h
193 29-05-2010 14:32:01 23.7 C 5.13 g/m*3 23.7 C 0 km/h
194 29-05-2010 14:44:01 23.3 C 5.23 g/m*3 23.3 C 0 km/h
195 29-05-2010 14:56:03 22.6 C 5.62 g/m*3 22.6 C 0 km/h
196 29-05-2010 15:08:02 23 C 5.55 g/m*3 23 C 0 km/h
197 29-05-2010 15:20:03 22.5 C 5.19 g/m*3 22.5 C 0 km/h
198 29-05-2010 15:32:02 22.7 C 6.06 g/m*3 22.7 C 0 km/h
199 29-05-2010 15:44:02 23.5 C 5.08 g/m*3 23.5 C 0 km/h
200 29-05-2010 15:56:02 23.4 C 4.84 g/m*3 23.4 C 0 km/h
Sensor: Nr:Datum:Temp:Abs-Feuchte:Windchill:Wind:
Aussen-T/F 201 29-05-2010 16:08:02 23.5 C 4.86 g/m*3 23.5 C 0 km/h
202 29-05-2010 16:20:02 24.5 C 5.15 g/m*3 24.5 C 0 km/h
203 29-05-2010 16:32:02 24.4 C 4.9 g/m*3 24.4 C 0 km/h
204 29-05-2010 16:44:02 24.5 C 5.15 g/m*3 24.5 C 0 km/h
205 29-05-2010 16:56:02 25.2 C 4.89 g/m*3 25.2 C 0 km/h
206 29-05-2010 17:08:02 25.1 C 5.79 g/m*3 25.1 C 0 km/h
207 29-05-2010 17:20:03 24.9 C 5.72 g/m*3 24.9 C 0 km/h
208 29-05-2010 17:32:02 23.5 C 5.92 g/m*3 23.5 C 0 km/h
209 29-05-2010 17:44:02 23.3 C 6.27 g/m*3 23.3 C 0 km/h
210 29-05-2010 17:56:02 23 C 5.96 g/m*3 23 C 0 km/h
211 29-05-2010 18:08:02 22.4 C 6.16 g/m*3 22.4 C 0 km/h
212 29-05-2010 18:20:02 22 C 6.21 g/m*3 22 C 0 km/h
213 29-05-2010 18:32:03 21.6 C 6.45 g/m*3 21.6 C 0 km/h
214 29-05-2010 18:44:03 21.3 C 5.78 g/m*3 21.3 C 0 km/h
215 29-05-2010 18:56:02 21.2 C 5.56 g/m*3 21.2 C 0 km/h
216 29-05-2010 19:08:01 21.2 C 5.56 g/m*3 21.2 C 0 km/h
217 29-05-2010 19:20:02 21 C 5.13 g/m*3 21 C 0 km/h
218 29-05-2010 19:32:02 20.4 C 5.31 g/m*3 20.4 C 0 km/h
219 29-05-2010 19:44:02 20.3 C 5.28 g/m*3 20.3 C 0 km/h
220 29-05-2010 19:56:02 20.4 C 5.48 g/m*3 20.4 C 0 km/h
221 29-05-2010 20:08:02 20 C 5.53 g/m*3 20 C 0 km/h
222 29-05-2010 20:20:02 19.6 C 5.74 g/m*3 19.6 C 0 km/h
223 29-05-2010 20:32:02 19.4 C 5.84 g/m*3 19.4 C 0 km/h
224 29-05-2010 20:44:02 18.9 C 6.32 g/m*3 18.9 C 0 km/h
225 29-05-2010 20:56:02 18.6 C 6.37 g/m*3 18.6 C 0 km/h
Sensor: Nr:Datum:Temp:Abs-Feuchte:Windchill:Wind:
Aussen-T/F 226 29-05-2010 21:08:02 18.4 C 5.98 g/m*3 18.4 C 0 km/h
227 29-05-2010 21:20:02 18.3 C 5.79 g/m*3 18.3 C 0 km/h
228 29-05-2010 21:32:02 17.6 C 6.9 g/m*3 17.6 C 0 km/h
229 29-05-2010 21:44:02 16.4 C 6.84 g/m*3 16.4 C 0 km/h
230 29-05-2010 21:56:02 14.6 C 8.13 g/m*3 14.6 C 0 km/h
231 29-05-2010 22:08:02 13.8 C 8.94 g/m*3 13.8 C 0 km/h
232 29-05-2010 22:20:01 13.3 C 9.01 g/m*3 13.3 C 0 km/h
233 29-05-2010 22:32:01 13.9 C 9.47 g/m*3 13.9 C 0 km/h
234 29-05-2010 22:44:01 14.3 C 8.97 g/m*3 14.3 C 0 km/h
235 29-05-2010 22:57:02 14.5 C 8.95 g/m*3 14.5 C 0 km/h
236 29-05-2010 23:09:02 14.5 C 8.71 g/m*3 14.5 C 0 km/h
237 29-05-2010 23:21:02 14.4 C 8.65 g/m*3 14.4 C 0 km/h
238 29-05-2010 23:33:02 13.7 C 8.76 g/m*3 13.7 C 0 km/h
239 29-05-2010 23:45:02 12.8 C 8.96 g/m*3 12.8 C 0 km/h
240 29-05-2010 23:57:02 13.2 C 9.42 g/m*3 13.2 C 0 km/h

Legende:
   Min
   Max


Maximal/Minimal-Werte vom 28.05.2010 - 29.05.2010

Sensor Min Max Avg
Temp
(Aussen-T/F)
9.3 °C
29-05-2010  05:56:05
25.5 °C
29-05-2010  13:44:01
16.82 °C
Abs-Feuchte
(Aussen-T/F)
3.93 g/m*3
28-05-2010  17:07:01
10.77 g/m*3
28-05-2010  08:55:01
6.98 g/m*3
Windchill
(Aussen-T/F)
9.3 C
29-05-2010  05:56:05
25.5 C
29-05-2010  13:44:01
16.75 C

Die Daten stammen von einer Davis Vantage Pro 2 Wetter-Station und werden unter Linux mit der Software wview2wettercgi und aufbereitet. Alle Angaben erfolgen ohne Gewähr für ihre Vollständigkeit oder Richtigkeit.
Kontakt: Rainer Krienke krienke@uni-koblenz.de . Meine Webseiten an der Uni Koblenz oder privat.
Version: $Revision: 0.78 $